sensor_id;sensor_type;location;lat;lon;timestamp;P1;durP1;ratioP1;P2;durP2;ratioP2
53881;SDS011;39794;55.782;37.452;2023-07-30T00:01:32;15.18;;;9.40;;
53881;SDS011;39794;55.782;37.452;2023-07-30T00:04:01;15.35;;;9.88;;
53881;SDS011;39794;55.782;37.452;2023-07-30T00:06:30;16.63;;;10.50;;
53881;SDS011;39794;55.782;37.452;2023-07-30T00:08:58;13.50;;;9.45;;
53881;SDS011;39794;55.782;37.452;2023-07-30T00:11:28;15.00;;;8.93;;
53881;SDS011;39794;55.782;37.452;2023-07-30T00:13:56;14.80;;;10.68;;
53881;SDS011;39794;55.782;37.452;2023-07-30T00:16:26;15.68;;;9.43;;
53881;SDS011;39794;55.782;37.452;2023-07-30T04:19:42;9.35;;;3.67;;
53881;SDS011;39794;55.782;37.452;2023-07-30T04:22:11;5.30;;;3.53;;
53881;SDS011;39794;55.782;37.452;2023-07-30T04:24:40;3.58;;;2.63;;
53881;SDS011;39794;55.782;37.452;2023-07-30T04:27:09;5.15;;;3.13;;
53881;SDS011;39794;55.782;37.452;2023-07-30T04:29:37;4.55;;;3.00;;
53881;SDS011;39794;55.782;37.452;2023-07-30T04:32:07;3.53;;;2.70;;
53881;SDS011;39794;55.782;37.452;2023-07-30T04:34:36;8.05;;;3.33;;
53881;SDS011;39794;55.782;37.452;2023-07-30T04:37:06;3.50;;;2.70;;
53881;SDS011;39794;55.782;37.452;2023-07-30T04:39:36;3.97;;;3.00;;
53881;SDS011;39794;55.782;37.452;2023-07-30T04:42:05;4.93;;;2.92;;
53881;SDS011;39794;55.782;37.452;2023-07-30T04:44:34;3.20;;;2.90;;
53881;SDS011;39794;55.782;37.452;2023-07-30T04:47:09;4.00;;;2.42;;
53881;SDS011;39794;55.782;37.452;2023-07-30T04:49:38;4.15;;;2.97;;
53881;SDS011;39794;55.782;37.452;2023-07-30T04:52:08;4.75;;;3.00;;
53881;SDS011;39794;55.782;37.452;2023-07-30T04:54:37;7.22;;;2.88;;
53881;SDS011;39794;55.782;37.452;2023-07-30T04:57:06;5.85;;;2.70;;
53881;SDS011;39794;55.782;37.452;2023-07-30T04:59:36;8.02;;;3.05;;
53881;SDS011;39794;55.782;37.452;2023-07-30T05:02:05;4.97;;;2.42;;
53881;SDS011;39794;55.782;37.452;2023-07-30T05:04:34;4.20;;;2.83;;
53881;SDS011;39794;55.782;37.452;2023-07-30T05:07:03;3.95;;;2.92;;
53881;SDS011;39794;55.782;37.452;2023-07-30T05:09:33;4.07;;;2.55;;
53881;SDS011;39794;55.782;37.452;2023-07-30T05:12:05;4.50;;;2.42;;
53881;SDS011;39794;55.782;37.452;2023-07-30T05:14:33;4.28;;;3.00;;
53881;SDS011;39794;55.782;37.452;2023-07-30T05:17:02;8.02;;;2.97;;
53881;SDS011;39794;55.782;37.452;2023-07-30T05:19:33;3.28;;;2.65;;
53881;SDS011;39794;55.782;37.452;2023-07-30T05:22:04;5.40;;;2.90;;
53881;SDS011;39794;55.782;37.452;2023-07-30T05:24:36;6.78;;;3.15;;
53881;SDS011;39794;55.782;37.452;2023-07-30T05:27:05;4.18;;;3.03;;
53881;SDS011;39794;55.782;37.452;2023-07-30T05:29:34;5.30;;;2.60;;
53881;SDS011;39794;55.782;37.452;2023-07-30T05:32:03;3.20;;;2.65;;
53881;SDS011;39794;55.782;37.452;2023-07-30T05:34:32;2.95;;;2.50;;
53881;SDS011;39794;55.782;37.452;2023-07-30T05:37:03;7.07;;;2.80;;
53881;SDS011;39794;55.782;37.452;2023-07-30T05:39:32;3.75;;;2.78;;
53881;SDS011;39794;55.782;37.452;2023-07-30T05:42:03;7.30;;;2.80;;
53881;SDS011;39794;55.782;37.452;2023-07-30T05:44:33;4.05;;;2.40;;
53881;SDS011;39794;55.782;37.452;2023-07-30T05:47:01;5.35;;;2.60;;
53881;SDS011;39794;55.782;37.452;2023-07-30T05:49:30;4.88;;;2.78;;
53881;SDS011;39794;55.782;37.452;2023-07-30T05:52:00;2.80;;;2.55;;
53881;SDS011;39794;55.782;37.452;2023-07-30T05:54:28;5.35;;;2.35;;
53881;SDS011;39794;55.782;37.452;2023-07-30T05:56:59;3.97;;;2.78;;
53881;SDS011;39794;55.782;37.452;2023-07-30T05:59:29;3.05;;;2.40;;
53881;SDS011;39794;55.782;37.452;2023-07-30T06:02:01;5.28;;;3.15;;
53881;SDS011;39794;55.782;37.452;2023-07-30T06:04:30;4.30;;;3.00;;
53881;SDS011;39794;55.782;37.452;2023-07-30T06:06:59;3.15;;;2.50;;
53881;SDS011;39794;55.782;37.452;2023-07-30T06:09:29;4.45;;;2.65;;
53881;SDS011;39794;55.782;37.452;2023-07-30T06:11:57;4.05;;;2.75;;
53881;SDS011;39794;55.782;37.452;2023-07-30T06:14:26;3.85;;;2.60;;
53881;SDS011;39794;55.782;37.452;2023-07-30T06:16:56;4.25;;;2.70;;
53881;SDS011;39794;55.782;37.452;2023-07-30T06:19:25;5.28;;;2.50;;
53881;SDS011;39794;55.782;37.452;2023-07-30T06:21:54;5.35;;;2.33;;
53881;SDS011;39794;55.782;37.452;2023-07-30T06:24:23;3.95;;;2.58;;
53881;SDS011;39794;55.782;37.452;2023-07-30T06:26:51;6.22;;;2.60;;
53881;SDS011;39794;55.782;37.452;2023-07-30T06:29:20;3.85;;;2.88;;
53881;SDS011;39794;55.782;37.452;2023-07-30T06:31:50;5.30;;;2.92;;
53881;SDS011;39794;55.782;37.452;2023-07-30T06:34:22;3.47;;;2.47;;
53881;SDS011;39794;55.782;37.452;2023-07-30T06:36:50;4.47;;;3.33;;
53881;SDS011;39794;55.782;37.452;2023-07-30T06:39:19;3.05;;;2.20;;
53881;SDS011;39794;55.782;37.452;2023-07-30T06:41:49;5.30;;;2.20;;
53881;SDS011;39794;55.782;37.452;2023-07-30T06:44:19;6.13;;;2.28;;
53881;SDS011;39794;55.782;37.452;2023-07-30T06:46:51;4.25;;;2.08;;
53881;SDS011;39794;55.782;37.452;2023-07-30T06:49:22;3.47;;;2.17;;
53881;SDS011;39794;55.782;37.452;2023-07-30T06:51:51;2.25;;;2.05;;
53881;SDS011;39794;55.782;37.452;2023-07-30T06:54:19;5.97;;;3.20;;
53881;SDS011;39794;55.782;37.452;2023-07-30T06:56:48;4.47;;;2.40;;
53881;SDS011;39794;55.782;37.452;2023-07-30T06:59:17;3.55;;;2.25;;
53881;SDS011;39794;55.782;37.452;2023-07-30T07:01:45;3.10;;;2.15;;
53881;SDS011;39794;55.782;37.452;2023-07-30T07:04:14;3.85;;;1.75;;
53881;SDS011;39794;55.782;37.452;2023-07-30T07:06:44;4.18;;;1.70;;
53881;SDS011;39794;55.782;37.452;2023-07-30T07:09:13;3.03;;;2.13;;
53881;SDS011;39794;55.782;37.452;2023-07-30T07:11:43;3.05;;;1.75;;
53881;SDS011;39794;55.782;37.452;2023-07-30T07:14:12;5.15;;;1.98;;
53881;SDS011;39794;55.782;37.452;2023-07-30T07:16:41;2.28;;;1.88;;
53881;SDS011;39794;55.782;37.452;2023-07-30T07:19:10;7.97;;;1.85;;
53881;SDS011;39794;55.782;37.452;2023-07-30T07:21:41;4.20;;;1.90;;
53881;SDS011;39794;55.782;37.452;2023-07-30T07:24:11;2.80;;;2.20;;
53881;SDS011;39794;55.782;37.452;2023-07-30T07:26:40;4.18;;;2.20;;
53881;SDS011;39794;55.782;37.452;2023-07-30T07:29:09;2.13;;;1.67;;
53881;SDS011;39794;55.782;37.452;2023-07-30T07:31:38;4.20;;;1.90;;
53881;SDS011;39794;55.782;37.452;2023-07-30T07:34:07;1.67;;;1.40;;
53881;SDS011;39794;55.782;37.452;2023-07-30T07:36:38;5.38;;;1.60;;
53881;SDS011;39794;55.782;37.452;2023-07-30T07:39:06;2.53;;;1.50;;
53881;SDS011;39794;55.782;37.452;2023-07-30T07:41:37;2.35;;;1.50;;
53881;SDS011;39794;55.782;37.452;2023-07-30T07:44:06;2.15;;;1.55;;
53881;SDS011;39794;55.782;37.452;2023-07-30T07:46:35;3.20;;;1.70;;
53881;SDS011;39794;55.782;37.452;2023-07-30T07:49:04;2.15;;;1.65;;
53881;SDS011;39794;55.782;37.452;2023-07-30T07:51:32;4.10;;;1.70;;
53881;SDS011;39794;55.782;37.452;2023-07-30T07:54:01;2.35;;;1.40;;
53881;SDS011;39794;55.782;37.452;2023-07-30T07:56:30;2.92;;;1.50;;
53881;SDS011;39794;55.782;37.452;2023-07-30T07:59:00;1.85;;;1.50;;
53881;SDS011;39794;55.782;37.452;2023-07-30T08:01:29;2.15;;;1.48;;
53881;SDS011;39794;55.782;37.452;2023-07-30T08:03:58;1.55;;;1.40;;
53881;SDS011;39794;55.782;37.452;2023-07-30T08:06:27;4.38;;;1.67;;
53881;SDS011;39794;55.782;37.452;2023-07-30T08:08:56;2.13;;;1.60;;
53881;SDS011;39794;55.782;37.452;2023-07-30T08:11:25;3.10;;;1.50;;
53881;SDS011;39794;55.782;37.452;2023-07-30T08:13:55;2.40;;;1.67;;
53881;SDS011;39794;55.782;37.452;2023-07-30T08:16:25;2.63;;;1.70;;
53881;SDS011;39794;55.782;37.452;2023-07-30T08:18:53;2.10;;;1.50;;
53881;SDS011;39794;55.782;37.452;2023-07-30T08:21:23;2.55;;;1.73;;
53881;SDS011;39794;55.782;37.452;2023-07-30T08:23:51;2.03;;;1.50;;
53881;SDS011;39794;55.782;37.452;2023-07-30T08:26:20;4.00;;;1.55;;
53881;SDS011;39794;55.782;37.452;2023-07-30T08:28:49;1.90;;;1.60;;
53881;SDS011;39794;55.782;37.452;2023-07-30T08:31:18;1.45;;;1.05;;
53881;SDS011;39794;55.782;37.452;2023-07-30T08:33:48;3.38;;;1.45;;
53881;SDS011;39794;55.782;37.452;2023-07-30T08:36:16;3.33;;;1.50;;
53881;SDS011;39794;55.782;37.452;2023-07-30T08:38:49;4.47;;;1.58;;
53881;SDS011;39794;55.782;37.452;2023-07-30T08:41:19;1.65;;;1.13;;
53881;SDS011;39794;55.782;37.452;2023-07-30T08:43:47;2.70;;;1.42;;
53881;SDS011;39794;55.782;37.452;2023-07-30T08:46:16;3.72;;;1.40;;
53881;SDS011;39794;55.782;37.452;2023-07-30T08:48:45;1.98;;;1.60;;
53881;SDS011;39794;55.782;37.452;2023-07-30T08:51:18;3.63;;;1.60;;
53881;SDS011;39794;55.782;37.452;2023-07-30T08:53:49;3.78;;;1.88;;
53881;SDS011;39794;55.782;37.452;2023-07-30T08:56:23;2.75;;;1.70;;
53881;SDS011;39794;55.782;37.452;2023-07-30T08:58:58;3.78;;;1.40;;
53881;SDS011;39794;55.782;37.452;2023-07-30T09:01:29;3.45;;;1.50;;
53881;SDS011;39794;55.782;37.452;2023-07-30T09:03:59;3.67;;;1.48;;
53881;SDS011;39794;55.782;37.452;2023-07-30T09:06:30;2.08;;;1.55;;
53881;SDS011;39794;55.782;37.452;2023-07-30T09:08:59;1.98;;;1.50;;
53881;SDS011;39794;55.782;37.452;2023-07-30T09:11:27;1.65;;;1.55;;
53881;SDS011;39794;55.782;37.452;2023-07-30T09:13:56;2.40;;;1.50;;
53881;SDS011;39794;55.782;37.452;2023-07-30T09:16:25;2.25;;;1.42;;
53881;SDS011;39794;55.782;37.452;2023-07-30T09:18:54;2.20;;;1.50;;
53881;SDS011;39794;55.782;37.452;2023-07-30T09:21:30;2.20;;;1.50;;
53881;SDS011;39794;55.782;37.452;2023-07-30T09:24:01;2.97;;;1.77;;
53881;SDS011;39794;55.782;37.452;2023-07-30T09:26:42;6.28;;;1.63;;
53881;SDS011;39794;55.782;37.452;2023-07-30T09:29:11;2.60;;;1.48;;
53881;SDS011;39794;55.782;37.452;2023-07-30T09:31:45;3.55;;;1.48;;
53881;SDS011;39794;55.782;37.452;2023-07-30T09:34:16;3.17;;;2.05;;
53881;SDS011;39794;55.782;37.452;2023-07-30T09:36:46;2.15;;;1.40;;
53881;SDS011;39794;55.782;37.452;2023-07-30T09:39:19;3.93;;;1.90;;
53881;SDS011;39794;55.782;37.452;2023-07-30T09:41:49;1.80;;;1.40;;
53881;SDS011;39794;55.782;37.452;2023-07-30T09:44:20;4.53;;;1.85;;
53881;SDS011;39794;55.782;37.452;2023-07-30T09:46:49;1.63;;;1.50;;
53881;SDS011;39794;55.782;37.452;2023-07-30T09:49:18;5.25;;;1.40;;
53881;SDS011;39794;55.782;37.452;2023-07-30T09:51:50;2.75;;;1.13;;
53881;SDS011;39794;55.782;37.452;2023-07-30T09:54:19;2.47;;;1.55;;
53881;SDS011;39794;55.782;37.452;2023-07-30T09:56:49;2.65;;;1.50;;
53881;SDS011;39794;55.782;37.452;2023-07-30T09:59:17;4.72;;;1.30;;
53881;SDS011;39794;55.782;37.452;2023-07-30T10:01:49;3.33;;;1.50;;
53881;SDS011;39794;55.782;37.452;2023-07-30T10:04:20;2.10;;;1.50;;
53881;SDS011;39794;55.782;37.452;2023-07-30T10:06:52;3.67;;;1.63;;
53881;SDS011;39794;55.782;37.452;2023-07-30T10:09:24;1.60;;;1.33;;
53881;SDS011;39794;55.782;37.452;2023-07-30T10:11:55;2.88;;;1.23;;
53881;SDS011;39794;55.782;37.452;2023-07-30T10:14:24;1.50;;;1.23;;
53881;SDS011;39794;55.782;37.452;2023-07-30T10:16:54;2.47;;;1.30;;
53881;SDS011;39794;55.782;37.452;2023-07-30T10:19:24;2.63;;;1.13;;
53881;SDS011;39794;55.782;37.452;2023-07-30T10:22:19;2.40;;;1.17;;
53881;SDS011;39794;55.782;37.452;2023-07-30T10:24:55;2.45;;;1.30;;
53881;SDS011;39794;55.782;37.452;2023-07-30T10:27:26;1.88;;;1.33;;
53881;SDS011;39794;55.782;37.452;2023-07-30T10:30:08;3.05;;;1.27;;
53881;SDS011;39794;55.782;37.452;2023-07-30T10:32:38;1.90;;;1.20;;
53881;SDS011;39794;55.782;37.452;2023-07-30T10:35:07;1.98;;;1.30;;
53881;SDS011;39794;55.782;37.452;2023-07-30T10:37:43;1.60;;;1.33;;
53881;SDS011;39794;55.782;37.452;2023-07-30T10:40:17;3.60;;;1.38;;
53881;SDS011;39794;55.782;37.452;2023-07-30T10:42:46;1.58;;;1.38;;
53881;SDS011;39794;55.782;37.452;2023-07-30T10:45:16;2.60;;;1.13;;
53881;SDS011;39794;55.782;37.452;2023-07-30T10:47:48;2.22;;;1.50;;
53881;SDS011;39794;55.782;37.452;2023-07-30T10:50:16;2.58;;;1.40;;
53881;SDS011;39794;55.782;37.452;2023-07-30T10:52:46;1.75;;;1.20;;
53881;SDS011;39794;55.782;37.452;2023-07-30T10:55:14;2.75;;;1.80;;
53881;SDS011;39794;55.782;37.452;2023-07-30T10:57:43;2.33;;;1.75;;
53881;SDS011;39794;55.782;37.452;2023-07-30T11:00:13;2.10;;;1.30;;
53881;SDS011;39794;55.782;37.452;2023-07-30T11:02:42;3.13;;;1.45;;
53881;SDS011;39794;55.782;37.452;2023-07-30T11:05:11;3.60;;;1.40;;
53881;SDS011;39794;55.782;37.452;2023-07-30T11:07:50;3.08;;;1.40;;
53881;SDS011;39794;55.782;37.452;2023-07-30T11:10:19;1.73;;;1.30;;
53881;SDS011;39794;55.782;37.452;2023-07-30T11:12:50;1.50;;;1.17;;
53881;SDS011;39794;55.782;37.452;2023-07-30T11:15:19;1.20;;;1.10;;
53881;SDS011;39794;55.782;37.452;2023-07-30T11:17:48;3.88;;;1.48;;
53881;SDS011;39794;55.782;37.452;2023-07-30T11:20:24;3.15;;;1.98;;
53881;SDS011;39794;55.782;37.452;2023-07-30T11:22:55;1.73;;;1.00;;
53881;SDS011;39794;55.782;37.452;2023-07-30T11:25:24;1.92;;;1.38;;
53881;SDS011;39794;55.782;37.452;2023-07-30T11:27:55;1.25;;;1.15;;
53881;SDS011;39794;55.782;37.452;2023-07-30T11:30:24;2.95;;;1.10;;
53881;SDS011;39794;55.782;37.452;2023-07-30T11:32:55;4.45;;;1.23;;
53881;SDS011;39794;55.782;37.452;2023-07-30T11:35:24;2.75;;;1.23;;
53881;SDS011;39794;55.782;37.452;2023-07-30T11:37:53;1.95;;;1.40;;
53881;SDS011;39794;55.782;37.452;2023-07-30T11:40:25;3.55;;;1.50;;
53881;SDS011;39794;55.782;37.452;2023-07-30T11:42:54;4.05;;;1.50;;
53881;SDS011;39794;55.782;37.452;2023-07-30T11:45:24;2.03;;;1.55;;
53881;SDS011;39794;55.782;37.452;2023-07-30T11:47:53;3.22;;;1.75;;
53881;SDS011;39794;55.782;37.452;2023-07-30T11:50:22;2.53;;;1.10;;
53881;SDS011;39794;55.782;37.452;2023-07-30T11:52:51;1.33;;;1.20;;
53881;SDS011;39794;55.782;37.452;2023-07-30T11:55:23;2.22;;;1.48;;
53881;SDS011;39794;55.782;37.452;2023-07-30T11:57:52;3.70;;;1.30;;
53881;SDS011;39794;55.782;37.452;2023-07-30T12:00:24;2.40;;;1.20;;
53881;SDS011;39794;55.782;37.452;2023-07-30T12:02:52;2.60;;;1.52;;
53881;SDS011;39794;55.782;37.452;2023-07-30T12:05:30;3.45;;;2.38;;
53881;SDS011;39794;55.782;37.452;2023-07-30T12:08:00;2.38;;;1.27;;
53881;SDS011;39794;55.782;37.452;2023-07-30T12:10:42;1.50;;;1.20;;
53881;SDS011;39794;55.782;37.452;2023-07-30T12:13:12;2.97;;;1.50;;
53881;SDS011;39794;55.782;37.452;2023-07-30T12:15:42;3.80;;;1.27;;
53881;SDS011;39794;55.782;37.452;2023-07-30T12:18:12;1.83;;;1.30;;
53881;SDS011;39794;55.782;37.452;2023-07-30T12:20:40;2.13;;;1.23;;
53881;SDS011;39794;55.782;37.452;2023-07-30T12:23:09;1.73;;;1.30;;
53881;SDS011;39794;55.782;37.452;2023-07-30T12:25:38;3.75;;;1.30;;
53881;SDS011;39794;55.782;37.452;2023-07-30T12:28:08;2.65;;;1.20;;
53881;SDS011;39794;55.782;37.452;2023-07-30T12:30:37;3.03;;;1.85;;
53881;SDS011;39794;55.782;37.452;2023-07-30T12:33:06;1.77;;;1.33;;
53881;SDS011;39794;55.782;37.452;2023-07-30T12:35:35;2.10;;;1.13;;
53881;SDS011;39794;55.782;37.452;2023-07-30T12:38:04;1.40;;;1.10;;
53881;SDS011;39794;55.782;37.452;2023-07-30T12:40:33;3.35;;;1.30;;
53881;SDS011;39794;55.782;37.452;2023-07-30T12:43:02;3.13;;;1.48;;
53881;SDS011;39794;55.782;37.452;2023-07-30T12:45:32;2.50;;;1.42;;
53881;SDS011;39794;55.782;37.452;2023-07-30T12:48:01;1.70;;;1.30;;
53881;SDS011;39794;55.782;37.452;2023-07-30T12:50:30;3.92;;;1.30;;
53881;SDS011;39794;55.782;37.452;2023-07-30T12:52:58;1.90;;;1.45;;
53881;SDS011;39794;55.782;37.452;2023-07-30T12:55:27;2.88;;;1.60;;
53881;SDS011;39794;55.782;37.452;2023-07-30T12:57:56;2.35;;;1.02;;
53881;SDS011;39794;55.782;37.452;2023-07-30T13:00:25;1.92;;;1.25;;
53881;SDS011;39794;55.782;37.452;2023-07-30T13:02:55;2.10;;;1.10;;
53881;SDS011;39794;55.782;37.452;2023-07-30T13:05:24;3.33;;;1.10;;
53881;SDS011;39794;55.782;37.452;2023-07-30T13:07:53;2.30;;;1.80;;
53881;SDS011;39794;55.782;37.452;2023-07-30T13:10:21;4.70;;;1.58;;
53881;SDS011;39794;55.782;37.452;2023-07-30T13:12:50;3.05;;;1.10;;
53881;SDS011;39794;55.782;37.452;2023-07-30T13:15:19;2.40;;;1.77;;
53881;SDS011;39794;55.782;37.452;2023-07-30T13:17:48;2.63;;;2.05;;
53881;SDS011;39794;55.782;37.452;2023-07-30T13:20:20;4.32;;;1.40;;
53881;SDS011;39794;55.782;37.452;2023-07-30T13:22:53;1.60;;;1.20;;
53881;SDS011;39794;55.782;37.452;2023-07-30T13:25:22;4.75;;;1.27;;
53881;SDS011;39794;55.782;37.452;2023-07-30T13:27:51;2.60;;;1.70;;
53881;SDS011;39794;55.782;37.452;2023-07-30T13:30:19;2.50;;;1.33;;
53881;SDS011;39794;55.782;37.452;2023-07-30T13:32:48;2.25;;;1.30;;
53881;SDS011;39794;55.782;37.452;2023-07-30T13:35:17;2.40;;;1.20;;
53881;SDS011;39794;55.782;37.452;2023-07-30T13:37:49;2.53;;;1.40;;
53881;SDS011;39794;55.782;37.452;2023-07-30T13:40:18;2.00;;;1.40;;
53881;SDS011;39794;55.782;37.452;2023-07-30T13:42:47;1.73;;;1.23;;
53881;SDS011;39794;55.782;37.452;2023-07-30T13:45:16;2.17;;;1.60;;
53881;SDS011;39794;55.782;37.452;2023-07-30T13:47:45;2.63;;;1.20;;
53881;SDS011;39794;55.782;37.452;2023-07-30T13:50:14;2.75;;;1.40;;
53881;SDS011;39794;55.782;37.452;2023-07-30T13:52:43;2.67;;;1.30;;
53881;SDS011;39794;55.782;37.452;2023-07-30T13:55:13;1.05;;;0.98;;
53881;SDS011;39794;55.782;37.452;2023-07-30T13:57:43;1.70;;;1.00;;
53881;SDS011;39794;55.782;37.452;2023-07-30T14:00:12;1.63;;;1.10;;
53881;SDS011;39794;55.782;37.452;2023-07-30T14:02:41;2.97;;;1.10;;
53881;SDS011;39794;55.782;37.452;2023-07-30T14:05:10;1.30;;;1.20;;
53881;SDS011;39794;55.782;37.452;2023-07-30T14:07:39;1.25;;;1.15;;
53881;SDS011;39794;55.782;37.452;2023-07-30T14:10:08;1.65;;;1.30;;
53881;SDS011;39794;55.782;37.452;2023-07-30T14:12:38;1.38;;;1.13;;
53881;SDS011;39794;55.782;37.452;2023-07-30T14:15:08;3.00;;;1.30;;
53881;SDS011;39794;55.782;37.452;2023-07-30T14:17:36;3.28;;;1.00;;
53881;SDS011;39794;55.782;37.452;2023-07-30T14:20:06;4.03;;;1.20;;
53881;SDS011;39794;55.782;37.452;2023-07-30T14:22:38;2.17;;;1.02;;
53881;SDS011;39794;55.782;37.452;2023-07-30T14:25:07;1.45;;;0.90;;
53881;SDS011;39794;55.782;37.452;2023-07-30T14:27:35;1.08;;;0.88;;
53881;SDS011;39794;55.782;37.452;2023-07-30T14:30:06;1.98;;;1.10;;
53881;SDS011;39794;55.782;37.452;2023-07-30T14:32:36;1.83;;;1.05;;
53881;SDS011;39794;55.782;37.452;2023-07-30T14:35:05;4.97;;;0.98;;
53881;SDS011;39794;55.782;37.452;2023-07-30T14:37:34;2.05;;;0.77;;
53881;SDS011;39794;55.782;37.452;2023-07-30T14:40:04;1.20;;;1.08;;
53881;SDS011;39794;55.782;37.452;2023-07-30T14:42:33;1.70;;;0.80;;
53881;SDS011;39794;55.782;37.452;2023-07-30T14:45:02;2.30;;;0.85;;
53881;SDS011;39794;55.782;37.452;2023-07-30T14:47:32;1.30;;;1.00;;
53881;SDS011;39794;55.782;37.452;2023-07-30T14:50:01;0.98;;;0.80;;
53881;SDS011;39794;55.782;37.452;2023-07-30T14:52:30;1.67;;;0.98;;
53881;SDS011;39794;55.782;37.452;2023-07-30T14:54:59;0.90;;;0.80;;
53881;SDS011;39794;55.782;37.452;2023-07-30T14:57:28;1.10;;;0.90;;
53881;SDS011;39794;55.782;37.452;2023-07-30T14:59:59;1.42;;;1.08;;
53881;SDS011;39794;55.782;37.452;2023-07-30T15:02:33;1.45;;;1.00;;
53881;SDS011;39794;55.782;37.452;2023-07-30T15:05:02;1.35;;;1.10;;
53881;SDS011;39794;55.782;37.452;2023-07-30T15:07:32;2.47;;;1.15;;
53881;SDS011;39794;55.782;37.452;2023-07-30T15:10:00;3.17;;;1.10;;
53881;SDS011;39794;55.782;37.452;2023-07-30T15:12:30;2.60;;;1.10;;
53881;SDS011;39794;55.782;37.452;2023-07-30T15:14:58;2.72;;;0.98;;
53881;SDS011;39794;55.782;37.452;2023-07-30T15:17:30;1.88;;;1.00;;
53881;SDS011;39794;55.782;37.452;2023-07-30T15:20:00;1.30;;;1.10;;
53881;SDS011;39794;55.782;37.452;2023-07-30T15:22:30;3.67;;;1.00;;
53881;SDS011;39794;55.782;37.452;2023-07-30T15:25:01;1.10;;;0.77;;
53881;SDS011;39794;55.782;37.452;2023-07-30T15:27:31;0.82;;;0.80;;
53881;SDS011;39794;55.782;37.452;2023-07-30T15:29:59;1.85;;;0.73;;
53881;SDS011;39794;55.782;37.452;2023-07-30T15:32:31;2.58;;;1.10;;
53881;SDS011;39794;55.782;37.452;2023-07-30T15:35:02;2.97;;;0.85;;
53881;SDS011;39794;55.782;37.452;2023-07-30T15:37:31;1.10;;;0.80;;
53881;SDS011;39794;55.782;37.452;2023-07-30T15:40:02;1.00;;;0.90;;
53881;SDS011;39794;55.782;37.452;2023-07-30T15:42:33;1.98;;;1.08;;
53881;SDS011;39794;55.782;37.452;2023-07-30T15:45:02;1.98;;;0.90;;
53881;SDS011;39794;55.782;37.452;2023-07-30T15:47:31;0.90;;;0.80;;
53881;SDS011;39794;55.782;37.452;2023-07-30T15:50:02;1.00;;;0.90;;
53881;SDS011;39794;55.782;37.452;2023-07-30T15:52:34;1.17;;;1.00;;
53881;SDS011;39794;55.782;37.452;2023-07-30T15:55:03;4.07;;;1.65;;
53881;SDS011;39794;55.782;37.452;2023-07-30T15:57:35;1.88;;;1.10;;
53881;SDS011;39794;55.782;37.452;2023-07-30T16:00:04;2.33;;;1.67;;
53881;SDS011;39794;55.782;37.452;2023-07-30T16:02:38;1.25;;;1.15;;
53881;SDS011;39794;55.782;37.452;2023-07-30T16:05:08;6.97;;;3.35;;
53881;SDS011;39794;55.782;37.452;2023-07-30T16:07:37;3.53;;;1.10;;
53881;SDS011;39794;55.782;37.452;2023-07-30T16:10:07;2.38;;;1.13;;
53881;SDS011;39794;55.782;37.452;2023-07-30T16:12:36;2.92;;;1.30;;
53881;SDS011;39794;55.782;37.452;2023-07-30T16:15:05;2.75;;;1.00;;
53881;SDS011;39794;55.782;37.452;2023-07-30T16:17:34;2.75;;;0.98;;
53881;SDS011;39794;55.782;37.452;2023-07-30T16:20:03;1.77;;;1.10;;
53881;SDS011;39794;55.782;37.452;2023-07-30T16:22:34;2.17;;;1.10;;
53881;SDS011;39794;55.782;37.452;2023-07-30T16:25:04;1.30;;;1.00;;
53881;SDS011;39794;55.782;37.452;2023-07-30T16:27:35;1.50;;;1.02;;
53881;SDS011;39794;55.782;37.452;2023-07-30T16:30:04;2.95;;;1.08;;
53881;SDS011;39794;55.782;37.452;2023-07-30T16:32:33;1.80;;;1.25;;
53881;SDS011;39794;55.782;37.452;2023-07-30T16:35:02;2.25;;;1.20;;
53881;SDS011;39794;55.782;37.452;2023-07-30T16:37:34;3.08;;;1.05;;
53881;SDS011;39794;55.782;37.452;2023-07-30T16:40:03;3.00;;;1.30;;
53881;SDS011;39794;55.782;37.452;2023-07-30T16:42:32;1.30;;;1.10;;
53881;SDS011;39794;55.782;37.452;2023-07-30T16:45:02;1.40;;;1.13;;
53881;SDS011;39794;55.782;37.452;2023-07-30T16:47:31;3.38;;;1.10;;
53881;SDS011;39794;55.782;37.452;2023-07-30T16:50:00;1.85;;;1.08;;
53881;SDS011;39794;55.782;37.452;2023-07-30T16:52:29;1.90;;;1.00;;
53881;SDS011;39794;55.782;37.452;2023-07-30T16:55:02;2.70;;;1.23;;
53881;SDS011;39794;55.782;37.452;2023-07-30T16:57:32;2.17;;;1.17;;
53881;SDS011;39794;55.782;37.452;2023-07-30T17:00:02;1.33;;;1.08;;
53881;SDS011;39794;55.782;37.452;2023-07-30T17:02:33;3.00;;;1.45;;
53881;SDS011;39794;55.782;37.452;2023-07-30T17:05:02;1.10;;;1.00;;
53881;SDS011;39794;55.782;37.452;2023-07-30T17:07:31;2.20;;;1.23;;
53881;SDS011;39794;55.782;37.452;2023-07-30T17:10:00;1.30;;;1.08;;
53881;SDS011;39794;55.782;37.452;2023-07-30T17:12:31;1.80;;;1.10;;
53881;SDS011;39794;55.782;37.452;2023-07-30T17:14:59;2.60;;;1.10;;
53881;SDS011;39794;55.782;37.452;2023-07-30T17:17:29;1.90;;;1.30;;
53881;SDS011;39794;55.782;37.452;2023-07-30T17:19:58;3.35;;;1.33;;
53881;SDS011;39794;55.782;37.452;2023-07-30T17:22:31;2.55;;;1.30;;
53881;SDS011;39794;55.782;37.452;2023-07-30T17:24:59;1.40;;;1.10;;
53881;SDS011;39794;55.782;37.452;2023-07-30T17:27:32;2.65;;;1.20;;
53881;SDS011;39794;55.782;37.452;2023-07-30T17:30:01;3.33;;;1.17;;
53881;SDS011;39794;55.782;37.452;2023-07-30T17:32:31;3.75;;;1.30;;
53881;SDS011;39794;55.782;37.452;2023-07-30T17:35:01;2.75;;;1.38;;
53881;SDS011;39794;55.782;37.452;2023-07-30T17:37:33;4.18;;;2.10;;
53881;SDS011;39794;55.782;37.452;2023-07-30T17:40:03;4.45;;;1.58;;
53881;SDS011;39794;55.782;37.452;2023-07-30T17:42:35;3.40;;;1.98;;
53881;SDS011;39794;55.782;37.452;2023-07-30T17:45:05;4.30;;;1.70;;
53881;SDS011;39794;55.782;37.452;2023-07-30T17:47:35;2.90;;;2.15;;
53881;SDS011;39794;55.782;37.452;2023-07-30T17:50:04;1.63;;;1.50;;
53881;SDS011;39794;55.782;37.452;2023-07-30T17:52:33;3.03;;;1.65;;
53881;SDS011;39794;55.782;37.452;2023-07-30T17:55:01;4.65;;;3.17;;
53881;SDS011;39794;55.782;37.452;2023-07-30T17:57:33;3.42;;;2.25;;
53881;SDS011;39794;55.782;37.452;2023-07-30T18:00:04;2.85;;;1.90;;
53881;SDS011;39794;55.782;37.452;2023-07-30T18:02:38;3.50;;;2.05;;
53881;SDS011;39794;55.782;37.452;2023-07-30T18:05:09;5.13;;;2.05;;
53881;SDS011;39794;55.782;37.452;2023-07-30T18:07:45;2.72;;;2.22;;
53881;SDS011;39794;55.782;37.452;2023-07-30T18:10:16;5.18;;;2.55;;
53881;SDS011;39794;55.782;37.452;2023-07-30T18:12:46;5.95;;;2.20;;
53881;SDS011;39794;55.782;37.452;2023-07-30T18:15:19;3.85;;;2.95;;
53881;SDS011;39794;55.782;37.452;2023-07-30T18:17:48;4.55;;;3.67;;
53881;SDS011;39794;55.782;37.452;2023-07-30T18:20:18;3.72;;;2.60;;
53881;SDS011;39794;55.782;37.452;2023-07-30T18:22:47;3.60;;;2.00;;
53881;SDS011;39794;55.782;37.452;2023-07-30T18:25:17;3.63;;;2.70;;
53881;SDS011;39794;55.782;37.452;2023-07-30T18:27:49;3.55;;;2.40;;
53881;SDS011;39794;55.782;37.452;2023-07-30T18:30:21;3.80;;;2.10;;
53881;SDS011;39794;55.782;37.452;2023-07-30T18:32:50;4.22;;;2.65;;
53881;SDS011;39794;55.782;37.452;2023-07-30T18:35:19;7.53;;;4.25;;
53881;SDS011;39794;55.782;37.452;2023-07-30T18:37:47;9.63;;;6.70;;
53881;SDS011;39794;55.782;37.452;2023-07-30T18:40:16;9.85;;;5.38;;
53881;SDS011;39794;55.782;37.452;2023-07-30T18:42:45;6.15;;;4.75;;
53881;SDS011;39794;55.782;37.452;2023-07-30T18:45:15;8.50;;;5.18;;
53881;SDS011;39794;55.782;37.452;2023-07-30T18:47:46;6.63;;;4.65;;
53881;SDS011;39794;55.782;37.452;2023-07-30T18:50:15;7.95;;;3.95;;